sensor_id;sensor_type;location;lat;lon;timestamp;P1;durP1;ratioP1;P2;durP2;ratioP2
75456;SDS011;64036;48.266;14.192;2023-01-28T00:02:14;11.80;;;6.10;;
75456;SDS011;64036;48.266;14.192;2023-01-28T00:04:58;12.60;;;6.30;;
75456;SDS011;64036;48.266;14.192;2023-01-28T00:07:48;11.90;;;6.10;;
75456;SDS011;64036;48.266;14.192;2023-01-28T00:10:24;13.90;;;6.70;;
75456;SDS011;64036;48.266;14.192;2023-01-28T00:13:01;13.10;;;6.40;;
75456;SDS011;64036;48.266;14.192;2023-01-28T00:15:27;11.30;;;5.90;;
75456;SDS011;64036;48.266;14.192;2023-01-28T00:17:53;10.60;;;5.40;;
75456;SDS011;64036;48.266;14.192;2023-01-28T00:20:22;11.00;;;5.60;;
75456;SDS011;64036;48.266;14.192;2023-01-28T00:22:50;11.00;;;6.00;;
75456;SDS011;64036;48.266;14.192;2023-01-28T00:25:23;10.70;;;5.40;;
75456;SDS011;64036;48.266;14.192;2023-01-28T00:27:49;10.90;;;5.90;;
75456;SDS011;64036;48.266;14.192;2023-01-28T00:30:19;11.20;;;5.30;;
75456;SDS011;64036;48.266;14.192;2023-01-28T00:32:45;9.40;;;4.40;;
75456;SDS011;64036;48.266;14.192;2023-01-28T00:35:11;10.90;;;5.30;;
75456;SDS011;64036;48.266;14.192;2023-01-28T00:37:50;10.80;;;5.90;;
75456;SDS011;64036;48.266;14.192;2023-01-28T00:40:19;11.10;;;5.70;;
75456;SDS011;64036;48.266;14.192;2023-01-28T00:42:45;9.10;;;4.80;;
75456;SDS011;64036;48.266;14.192;2023-01-28T00:45:11;9.60;;;4.70;;
75456;SDS011;64036;48.266;14.192;2023-01-28T00:47:37;8.90;;;4.60;;
75456;SDS011;64036;48.266;14.192;2023-01-28T00:50:35;9.20;;;5.10;;
75456;SDS011;64036;48.266;14.192;2023-01-28T00:53:33;11.20;;;6.10;;
75456;SDS011;64036;48.266;14.192;2023-01-28T01:03:22;10.30;;;5.10;;
75456;SDS011;64036;48.266;14.192;2023-01-28T01:06:11;8.00;;;4.50;;
75456;SDS011;64036;48.266;14.192;2023-01-28T01:11:41;10.40;;;5.30;;
75456;SDS011;64036;48.266;14.192;2023-01-28T01:14:28;10.50;;;6.00;;
75456;SDS011;64036;48.266;14.192;2023-01-28T01:17:32;9.20;;;4.50;;
75456;SDS011;64036;48.266;14.192;2023-01-28T01:20:28;9.70;;;5.80;;
75456;SDS011;64036;48.266;14.192;2023-01-28T01:23:13;10.70;;;5.60;;
75456;SDS011;64036;48.266;14.192;2023-01-28T01:29:26;10.70;;;4.50;;
75456;SDS011;64036;48.266;14.192;2023-01-28T01:46:02;8.40;;;4.20;;
75456;SDS011;64036;48.266;14.192;2023-01-28T01:48:49;8.10;;;4.50;;
75456;SDS011;64036;48.266;14.192;2023-01-28T01:51:51;10.70;;;5.50;;
75456;SDS011;64036;48.266;14.192;2023-01-28T01:54:27;9.80;;;5.30;;
75456;SDS011;64036;48.266;14.192;2023-01-28T02:00:26;10.00;;;5.00;;
75456;SDS011;64036;48.266;14.192;2023-01-28T02:03:31;8.70;;;4.50;;
75456;SDS011;64036;48.266;14.192;2023-01-28T02:06:40;11.00;;;5.00;;
75456;SDS011;64036;48.266;14.192;2023-01-28T02:09:25;8.70;;;4.50;;
75456;SDS011;64036;48.266;14.192;2023-01-28T02:12:28;7.40;;;4.10;;
75456;SDS011;64036;48.266;14.192;2023-01-28T02:29:44;10.30;;;4.50;;
75456;SDS011;64036;48.266;14.192;2023-01-28T02:37:28;8.20;;;3.90;;
75456;SDS011;64036;48.266;14.192;2023-01-28T02:46:36;9.20;;;4.20;;
75456;SDS011;64036;48.266;14.192;2023-01-28T02:49:52;9.50;;;5.10;;
75456;SDS011;64036;48.266;14.192;2023-01-28T03:01:29;6.70;;;3.80;;
75456;SDS011;64036;48.266;14.192;2023-01-28T03:08:19;7.90;;;4.30;;
75456;SDS011;64036;48.266;14.192;2023-01-28T03:25:57;9.00;;;4.50;;
75456;SDS011;64036;48.266;14.192;2023-01-28T03:29:30;8.10;;;4.00;;
75456;SDS011;64036;48.266;14.192;2023-01-28T03:32:51;9.60;;;4.80;;
75456;SDS011;64036;48.266;14.192;2023-01-28T03:36:10;8.90;;;3.90;;
75456;SDS011;64036;48.266;14.192;2023-01-28T03:40:15;9.30;;;4.00;;
75456;SDS011;64036;48.266;14.192;2023-01-28T03:43:23;8.40;;;4.00;;
75456;SDS011;64036;48.266;14.192;2023-01-28T03:46:36;7.70;;;4.10;;
75456;SDS011;64036;48.266;14.192;2023-01-28T03:53:05;11.00;;;5.80;;
75456;SDS011;64036;48.266;14.192;2023-01-28T03:55:58;10.40;;;5.10;;
75456;SDS011;64036;48.266;14.192;2023-01-28T03:59:18;8.70;;;4.40;;
75456;SDS011;64036;48.266;14.192;2023-01-28T04:02:21;11.10;;;5.30;;
75456;SDS011;64036;48.266;14.192;2023-01-28T04:08:01;10.60;;;5.10;;
75456;SDS011;64036;48.266;14.192;2023-01-28T04:10:27;11.80;;;5.80;;
75456;SDS011;64036;48.266;14.192;2023-01-28T04:19:05;11.30;;;5.20;;
75456;SDS011;64036;48.266;14.192;2023-01-28T04:22:09;9.70;;;5.00;;
75456;SDS011;64036;48.266;14.192;2023-01-28T04:25:25;11.60;;;6.50;;
75456;SDS011;64036;48.266;14.192;2023-01-28T04:28:35;9.70;;;5.10;;
75456;SDS011;64036;48.266;14.192;2023-01-28T04:34:43;12.70;;;6.10;;
75456;SDS011;64036;48.266;14.192;2023-01-28T04:37:13;12.50;;;6.20;;
75456;SDS011;64036;48.266;14.192;2023-01-28T04:42:30;14.90;;;7.20;;
75456;SDS011;64036;48.266;14.192;2023-01-28T04:44:59;14.90;;;7.80;;
75456;SDS011;64036;48.266;14.192;2023-01-28T04:47:24;16.60;;;7.80;;
75456;SDS011;64036;48.266;14.192;2023-01-28T04:50:09;19.00;;;9.00;;
75456;SDS011;64036;48.266;14.192;2023-01-28T04:52:42;21.50;;;9.50;;
75456;SDS011;64036;48.266;14.192;2023-01-28T04:55:34;16.60;;;8.10;;
75456;SDS011;64036;48.266;14.192;2023-01-28T05:05:24;15.60;;;7.40;;
75456;SDS011;64036;48.266;14.192;2023-01-28T05:11:50;19.30;;;8.10;;
75456;SDS011;64036;48.266;14.192;2023-01-28T05:26:01;19.30;;;9.20;;
75456;SDS011;64036;48.266;14.192;2023-01-28T05:40:15;18.70;;;8.70;;
75456;SDS011;64036;48.266;14.192;2023-01-28T05:46:43;15.20;;;6.90;;
75456;SDS011;64036;48.266;14.192;2023-01-28T05:49:11;17.10;;;8.10;;
75456;SDS011;64036;48.266;14.192;2023-01-28T05:51:41;18.00;;;8.00;;
75456;SDS011;64036;48.266;14.192;2023-01-28T05:54:07;16.60;;;8.20;;
75456;SDS011;64036;48.266;14.192;2023-01-28T05:56:34;16.00;;;7.10;;
75456;SDS011;64036;48.266;14.192;2023-01-28T05:59:21;12.30;;;6.30;;
75456;SDS011;64036;48.266;14.192;2023-01-28T06:02:24;14.70;;;7.20;;
75456;SDS011;64036;48.266;14.192;2023-01-28T06:05:19;15.90;;;7.00;;
75456;SDS011;64036;48.266;14.192;2023-01-28T06:07:48;18.60;;;8.50;;
75456;SDS011;64036;48.266;14.192;2023-01-28T06:11:03;19.30;;;8.10;;
75456;SDS011;64036;48.266;14.192;2023-01-28T06:13:28;16.10;;;7.80;;
75456;SDS011;64036;48.266;14.192;2023-01-28T06:18:52;16.00;;;6.90;;
75456;SDS011;64036;48.266;14.192;2023-01-28T06:21:38;19.30;;;9.40;;
75456;SDS011;64036;48.266;14.192;2023-01-28T06:24:10;17.80;;;8.10;;
75456;SDS011;64036;48.266;14.192;2023-01-28T06:26:36;20.20;;;8.90;;
75456;SDS011;64036;48.266;14.192;2023-01-28T06:29:02;20.90;;;8.70;;
75456;SDS011;64036;48.266;14.192;2023-01-28T06:31:27;19.00;;;9.50;;
75456;SDS011;64036;48.266;14.192;2023-01-28T06:34:03;25.10;;;10.20;;
75456;SDS011;64036;48.266;14.192;2023-01-28T06:36:49;21.40;;;9.30;;
75456;SDS011;64036;48.266;14.192;2023-01-28T06:39:18;19.10;;;9.00;;
75456;SDS011;64036;48.266;14.192;2023-01-28T06:41:46;17.90;;;8.10;;
75456;SDS011;64036;48.266;14.192;2023-01-28T06:44:17;19.40;;;8.80;;
75456;SDS011;64036;48.266;14.192;2023-01-28T06:47:20;19.00;;;7.80;;
75456;SDS011;64036;48.266;14.192;2023-01-28T06:50:14;15.10;;;7.60;;
75456;SDS011;64036;48.266;14.192;2023-01-28T06:52:46;16.90;;;8.40;;
75456;SDS011;64036;48.266;14.192;2023-01-28T06:55:37;18.60;;;8.20;;
75456;SDS011;64036;48.266;14.192;2023-01-28T06:58:24;20.60;;;10.10;;
75456;SDS011;64036;48.266;14.192;2023-01-28T07:01:06;19.10;;;9.00;;
75456;SDS011;64036;48.266;14.192;2023-01-28T07:04:05;18.20;;;8.90;;
75456;SDS011;64036;48.266;14.192;2023-01-28T07:07:12;19.30;;;8.70;;
75456;SDS011;64036;48.266;14.192;2023-01-28T07:10:08;22.70;;;8.70;;
75456;SDS011;64036;48.266;14.192;2023-01-28T07:13:13;17.30;;;8.50;;
75456;SDS011;64036;48.266;14.192;2023-01-28T07:18:39;20.80;;;9.70;;
75456;SDS011;64036;48.266;14.192;2023-01-28T07:21:42;21.60;;;9.20;;
75456;SDS011;64036;48.266;14.192;2023-01-28T07:24:19;20.30;;;9.60;;
75456;SDS011;64036;48.266;14.192;2023-01-28T07:26:59;18.20;;;8.40;;
75456;SDS011;64036;48.266;14.192;2023-01-28T07:29:28;21.00;;;9.50;;
75456;SDS011;64036;48.266;14.192;2023-01-28T07:31:57;20.90;;;10.20;;
75456;SDS011;64036;48.266;14.192;2023-01-28T07:34:32;19.90;;;9.60;;
75456;SDS011;64036;48.266;14.192;2023-01-28T07:37:35;22.60;;;10.60;;
75456;SDS011;64036;48.266;14.192;2023-01-28T07:43:15;21.80;;;10.40;;
75456;SDS011;64036;48.266;14.192;2023-01-28T07:50:07;20.20;;;10.40;;
75456;SDS011;64036;48.266;14.192;2023-01-28T07:53:10;20.70;;;8.40;;
75456;SDS011;64036;48.266;14.192;2023-01-28T07:58:56;17.20;;;8.50;;
75456;SDS011;64036;48.266;14.192;2023-01-28T08:02:39;19.70;;;9.70;;
75456;SDS011;64036;48.266;14.192;2023-01-28T08:05:01;19.10;;;8.70;;
75456;SDS011;64036;48.266;14.192;2023-01-28T08:07:27;25.10;;;10.80;;
75456;SDS011;64036;48.266;14.192;2023-01-28T08:09:56;22.20;;;10.80;;
75456;SDS011;64036;48.266;14.192;2023-01-28T08:12:22;23.00;;;10.80;;
75456;SDS011;64036;48.266;14.192;2023-01-28T08:14:48;19.90;;;9.90;;
75456;SDS011;64036;48.266;14.192;2023-01-28T08:17:14;24.70;;;11.00;;
75456;SDS011;64036;48.266;14.192;2023-01-28T08:19:42;22.50;;;10.40;;
75456;SDS011;64036;48.266;14.192;2023-01-28T08:22:11;23.30;;;11.60;;
75456;SDS011;64036;48.266;14.192;2023-01-28T08:24:55;22.70;;;10.50;;
75456;SDS011;64036;48.266;14.192;2023-01-28T08:27:50;22.40;;;10.70;;
75456;SDS011;64036;48.266;14.192;2023-01-28T08:30:16;23.00;;;10.70;;
75456;SDS011;64036;48.266;14.192;2023-01-28T08:32:42;25.00;;;11.30;;
75456;SDS011;64036;48.266;14.192;2023-01-28T08:35:07;23.60;;;11.00;;
75456;SDS011;64036;48.266;14.192;2023-01-28T08:37:36;23.90;;;12.20;;
75456;SDS011;64036;48.266;14.192;2023-01-28T08:40:02;21.80;;;10.70;;
75456;SDS011;64036;48.266;14.192;2023-01-28T08:42:29;33.50;;;14.50;;
75456;SDS011;64036;48.266;14.192;2023-01-28T08:44:55;36.50;;;15.10;;
75456;SDS011;64036;48.266;14.192;2023-01-28T08:47:20;28.10;;;13.40;;
75456;SDS011;64036;48.266;14.192;2023-01-28T08:49:55;27.30;;;12.50;;
75456;SDS011;64036;48.266;14.192;2023-01-28T08:52:30;30.70;;;13.90;;
75456;SDS011;64036;48.266;14.192;2023-01-28T08:54:58;29.30;;;13.50;;
75456;SDS011;64036;48.266;14.192;2023-01-28T08:57:45;38.90;;;17.90;;
75456;SDS011;64036;48.266;14.192;2023-01-28T09:00:30;34.50;;;15.20;;
75456;SDS011;64036;48.266;14.192;2023-01-28T09:03:28;38.30;;;16.50;;
75456;SDS011;64036;48.266;14.192;2023-01-28T09:05:59;45.90;;;19.00;;
75456;SDS011;64036;48.266;14.192;2023-01-28T09:08:41;34.80;;;15.20;;
75456;SDS011;64036;48.266;14.192;2023-01-28T09:11:07;51.40;;;20.10;;
75456;SDS011;64036;48.266;14.192;2023-01-28T09:13:55;36.90;;;16.30;;
75456;SDS011;64036;48.266;14.192;2023-01-28T09:16:25;41.60;;;19.00;;
75456;SDS011;64036;48.266;14.192;2023-01-28T09:18:51;52.80;;;20.00;;
75456;SDS011;64036;48.266;14.192;2023-01-28T09:21:26;52.00;;;23.30;;
75456;SDS011;64036;48.266;14.192;2023-01-28T09:24:31;45.80;;;20.00;;
75456;SDS011;64036;48.266;14.192;2023-01-28T09:27:08;40.00;;;18.10;;
75456;SDS011;64036;48.266;14.192;2023-01-28T09:29:37;58.20;;;23.70;;
75456;SDS011;64036;48.266;14.192;2023-01-28T09:32:05;38.90;;;17.40;;
75456;SDS011;64036;48.266;14.192;2023-01-28T09:34:32;24.80;;;12.90;;
75456;SDS011;64036;48.266;14.192;2023-01-28T09:37:05;27.80;;;12.40;;
75456;SDS011;64036;48.266;14.192;2023-01-28T09:39:51;26.10;;;13.40;;
75456;SDS011;64036;48.266;14.192;2023-01-28T09:49:02;22.50;;;10.80;;
75456;SDS011;64036;48.266;14.192;2023-01-28T09:55:37;21.80;;;11.30;;
75456;SDS011;64036;48.266;14.192;2023-01-28T09:58:34;20.10;;;11.00;;
75456;SDS011;64036;48.266;14.192;2023-01-28T10:05:27;24.30;;;11.70;;
75456;SDS011;64036;48.266;14.192;2023-01-28T10:17:18;22.90;;;11.10;;
75456;SDS011;64036;48.266;14.192;2023-01-28T10:46:48;27.30;;;12.40;;
75456;SDS011;64036;48.266;14.192;2023-01-28T11:15:22;22.40;;;11.00;;
75456;SDS011;64036;48.266;14.192;2023-01-28T11:18:31;22.50;;;10.90;;
75456;SDS011;64036;48.266;14.192;2023-01-28T11:24:46;24.90;;;11.10;;
75456;SDS011;64036;48.266;14.192;2023-01-28T11:27:29;25.20;;;11.70;;
75456;SDS011;64036;48.266;14.192;2023-01-28T11:30:55;21.00;;;11.20;;
75456;SDS011;64036;48.266;14.192;2023-01-28T11:33:56;23.40;;;11.80;;
75456;SDS011;64036;48.266;14.192;2023-01-28T11:37:11;23.70;;;11.10;;
75456;SDS011;64036;48.266;14.192;2023-01-28T11:39:48;21.60;;;10.30;;
75456;SDS011;64036;48.266;14.192;2023-01-28T12:17:03;19.90;;;9.90;;
75456;SDS011;64036;48.266;14.192;2023-01-28T12:20:34;20.50;;;10.10;;
75456;SDS011;64036;48.266;14.192;2023-01-28T12:24:35;22.90;;;11.60;;
75456;SDS011;64036;48.266;14.192;2023-01-28T12:28:15;19.30;;;9.20;;
75456;SDS011;64036;48.266;14.192;2023-01-28T12:42:36;21.80;;;10.50;;
75456;SDS011;64036;48.266;14.192;2023-01-28T12:49:02;18.40;;;10.30;;
75456;SDS011;64036;48.266;14.192;2023-01-28T12:59:27;20.20;;;10.20;;
75456;SDS011;64036;48.266;14.192;2023-01-28T13:05:10;19.90;;;10.20;;
75456;SDS011;64036;48.266;14.192;2023-01-28T13:11:48;22.90;;;11.20;;
75456;SDS011;64036;48.266;14.192;2023-01-28T13:14:35;21.20;;;10.50;;
75456;SDS011;64036;48.266;14.192;2023-01-28T13:17:57;21.50;;;9.70;;
75456;SDS011;64036;48.266;14.192;2023-01-28T13:41:18;22.20;;;10.90;;
75456;SDS011;64036;48.266;14.192;2023-01-28T13:47:42;21.30;;;11.00;;
75456;SDS011;64036;48.266;14.192;2023-01-28T14:23:02;21.30;;;10.70;;
75456;SDS011;64036;48.266;14.192;2023-01-28T14:33:18;20.30;;;11.10;;
75456;SDS011;64036;48.266;14.192;2023-01-28T14:36:11;23.10;;;10.80;;
75456;SDS011;64036;48.266;14.192;2023-01-28T14:38:41;23.40;;;11.60;;
75456;SDS011;64036;48.266;14.192;2023-01-28T14:41:36;19.70;;;11.00;;
75456;SDS011;64036;48.266;14.192;2023-01-28T14:44:39;22.70;;;10.60;;
75456;SDS011;64036;48.266;14.192;2023-01-28T15:02:41;20.10;;;10.30;;
75456;SDS011;64036;48.266;14.192;2023-01-28T15:05:21;22.40;;;11.50;;
75456;SDS011;64036;48.266;14.192;2023-01-28T15:12:05;21.60;;;10.10;;
75456;SDS011;64036;48.266;14.192;2023-01-28T15:15:14;21.80;;;10.60;;
75456;SDS011;64036;48.266;14.192;2023-01-28T15:26:26;18.00;;;9.70;;
75456;SDS011;64036;48.266;14.192;2023-01-28T15:33:14;19.70;;;10.50;;
75456;SDS011;64036;48.266;14.192;2023-01-28T15:42:39;20.60;;;10.70;;
75456;SDS011;64036;48.266;14.192;2023-01-28T15:45:15;25.00;;;12.70;;
75456;SDS011;64036;48.266;14.192;2023-01-28T15:48:04;20.80;;;10.20;;
75456;SDS011;64036;48.266;14.192;2023-01-28T15:50:33;22.40;;;11.40;;
75456;SDS011;64036;48.266;14.192;2023-01-28T15:53:20;23.10;;;11.60;;
75456;SDS011;64036;48.266;14.192;2023-01-28T15:55:48;20.90;;;9.60;;
75456;SDS011;64036;48.266;14.192;2023-01-28T15:58:40;22.90;;;11.70;;
75456;SDS011;64036;48.266;14.192;2023-01-28T16:01:13;21.80;;;10.30;;
75456;SDS011;64036;48.266;14.192;2023-01-28T16:03:45;24.90;;;12.10;;
75456;SDS011;64036;48.266;14.192;2023-01-28T16:06:46;24.40;;;12.30;;
75456;SDS011;64036;48.266;14.192;2023-01-28T16:09:30;23.70;;;11.50;;
75456;SDS011;64036;48.266;14.192;2023-01-28T16:12:28;21.80;;;11.40;;
75456;SDS011;64036;48.266;14.192;2023-01-28T16:15:00;22.50;;;11.70;;
75456;SDS011;64036;48.266;14.192;2023-01-28T16:17:59;20.80;;;12.00;;
75456;SDS011;64036;48.266;14.192;2023-01-28T16:20:41;21.60;;;11.60;;
75456;SDS011;64036;48.266;14.192;2023-01-28T16:23:24;22.00;;;11.80;;
75456;SDS011;64036;48.266;14.192;2023-01-28T16:26:23;25.40;;;13.90;;
75456;SDS011;64036;48.266;14.192;2023-01-28T16:29:04;22.90;;;11.70;;
75456;SDS011;64036;48.266;14.192;2023-01-28T16:32:01;24.20;;;11.80;;
75456;SDS011;64036;48.266;14.192;2023-01-28T16:34:31;22.70;;;11.80;;
75456;SDS011;64036;48.266;14.192;2023-01-28T16:37:08;25.40;;;12.00;;
75456;SDS011;64036;48.266;14.192;2023-01-28T16:39:35;21.90;;;11.10;;
75456;SDS011;64036;48.266;14.192;2023-01-28T16:42:04;23.60;;;11.60;;
75456;SDS011;64036;48.266;14.192;2023-01-28T16:44:47;20.60;;;11.40;;
75456;SDS011;64036;48.266;14.192;2023-01-28T16:47:33;22.60;;;11.10;;
75456;SDS011;64036;48.266;14.192;2023-01-28T16:56:49;20.00;;;9.90;;
75456;SDS011;64036;48.266;14.192;2023-01-28T16:59:52;20.50;;;11.00;;
75456;SDS011;64036;48.266;14.192;2023-01-28T17:05:09;23.20;;;11.90;;
75456;SDS011;64036;48.266;14.192;2023-01-28T17:07:57;21.70;;;10.50;;
75456;SDS011;64036;48.266;14.192;2023-01-28T17:10:23;23.00;;;11.50;;
75456;SDS011;64036;48.266;14.192;2023-01-28T17:13:14;21.00;;;10.10;;
75456;SDS011;64036;48.266;14.192;2023-01-28T17:15:43;20.70;;;10.70;;
75456;SDS011;64036;48.266;14.192;2023-01-28T17:18:35;24.20;;;11.80;;
75456;SDS011;64036;48.266;14.192;2023-01-28T17:21:04;26.70;;;12.00;;
75456;SDS011;64036;48.266;14.192;2023-01-28T17:23:46;23.40;;;11.40;;
75456;SDS011;64036;48.266;14.192;2023-01-28T17:29:26;21.70;;;10.60;;
75456;SDS011;64036;48.266;14.192;2023-01-28T17:32:15;19.90;;;9.50;;
75456;SDS011;64036;48.266;14.192;2023-01-28T17:34:46;22.60;;;10.90;;
75456;SDS011;64036;48.266;14.192;2023-01-28T17:37:22;23.30;;;11.50;;
75456;SDS011;64036;48.266;14.192;2023-01-28T17:40:16;20.40;;;10.70;;
75456;SDS011;64036;48.266;14.192;2023-01-28T17:43:07;23.70;;;11.60;;
75456;SDS011;64036;48.266;14.192;2023-01-28T17:45:42;27.00;;;12.50;;
75456;SDS011;64036;48.266;14.192;2023-01-28T17:48:20;23.60;;;11.30;;
75456;SDS011;64036;48.266;14.192;2023-01-28T17:51:07;24.10;;;12.20;;
75456;SDS011;64036;48.266;14.192;2023-01-28T17:53:54;20.70;;;11.50;;
75456;SDS011;64036;48.266;14.192;2023-01-28T17:56:25;22.00;;;11.20;;
75456;SDS011;64036;48.266;14.192;2023-01-28T17:58:57;20.30;;;10.90;;
75456;SDS011;64036;48.266;14.192;2023-01-28T18:01:26;23.40;;;11.50;;
75456;SDS011;64036;48.266;14.192;2023-01-28T18:04:20;21.80;;;11.10;;
75456;SDS011;64036;48.266;14.192;2023-01-28T18:07:08;20.40;;;9.40;;
75456;SDS011;64036;48.266;14.192;2023-01-28T18:09:42;23.70;;;11.30;;
75456;SDS011;64036;48.266;14.192;2023-01-28T18:15:26;20.30;;;10.20;;
75456;SDS011;64036;48.266;14.192;2023-01-28T18:17:58;24.00;;;11.20;;
75456;SDS011;64036;48.266;14.192;2023-01-28T18:20:36;20.10;;;10.40;;
75456;SDS011;64036;48.266;14.192;2023-01-28T18:23:11;18.30;;;10.00;;
75456;SDS011;64036;48.266;14.192;2023-01-28T18:26:00;25.00;;;11.00;;
75456;SDS011;64036;48.266;14.192;2023-01-28T18:28:31;21.20;;;10.80;;
75456;SDS011;64036;48.266;14.192;2023-01-28T18:31:06;20.30;;;10.60;;
75456;SDS011;64036;48.266;14.192;2023-01-28T18:33:44;20.00;;;10.90;;
75456;SDS011;64036;48.266;14.192;2023-01-28T18:36:22;19.00;;;10.20;;
75456;SDS011;64036;48.266;14.192;2023-01-28T18:38:51;24.80;;;11.30;;
75456;SDS011;64036;48.266;14.192;2023-01-28T18:41:24;20.70;;;11.20;;
75456;SDS011;64036;48.266;14.192;2023-01-28T18:43:50;23.40;;;11.90;;
75456;SDS011;64036;48.266;14.192;2023-01-28T18:46:17;22.70;;;12.60;;
75456;SDS011;64036;48.266;14.192;2023-01-28T18:49:23;27.00;;;13.00;;
75456;SDS011;64036;48.266;14.192;2023-01-28T18:52:13;23.70;;;11.00;;
75456;SDS011;64036;48.266;14.192;2023-01-28T18:54:39;24.40;;;11.20;;
75456;SDS011;64036;48.266;14.192;2023-01-28T18:57:08;21.60;;;11.20;;
75456;SDS011;64036;48.266;14.192;2023-01-28T18:59:36;22.00;;;11.50;;
75456;SDS011;64036;48.266;14.192;2023-01-28T19:02:12;26.30;;;12.40;;
75456;SDS011;64036;48.266;14.192;2023-01-28T19:07:10;18.70;;;9.80;;
75456;SDS011;64036;48.266;14.192;2023-01-28T19:09:36;20.00;;;9.10;;
75456;SDS011;64036;48.266;14.192;2023-01-28T19:12:02;22.20;;;10.90;;
75456;SDS011;64036;48.266;14.192;2023-01-28T19:14:28;20.70;;;11.30;;
75456;SDS011;64036;48.266;14.192;2023-01-28T19:16:54;21.20;;;10.50;;
75456;SDS011;64036;48.266;14.192;2023-01-28T19:19:25;20.40;;;10.70;;
75456;SDS011;64036;48.266;14.192;2023-01-28T19:22:00;23.60;;;11.10;;
75456;SDS011;64036;48.266;14.192;2023-01-28T19:24:26;22.30;;;10.80;;
75456;SDS011;64036;48.266;14.192;2023-01-28T19:26:52;23.30;;;11.20;;
75456;SDS011;64036;48.266;14.192;2023-01-28T19:29:21;21.10;;;10.10;;
75456;SDS011;64036;48.266;14.192;2023-01-28T19:31:49;20.90;;;10.80;;
75456;SDS011;64036;48.266;14.192;2023-01-28T19:34:18;20.10;;;10.70;;
75456;SDS011;64036;48.266;14.192;2023-01-28T19:36:45;20.20;;;10.10;;
75456;SDS011;64036;48.266;14.192;2023-01-28T19:39:12;24.30;;;11.30;;
75456;SDS011;64036;48.266;14.192;2023-01-28T19:41:38;21.60;;;11.40;;
75456;SDS011;64036;48.266;14.192;2023-01-28T19:44:04;22.00;;;10.50;;
75456;SDS011;64036;48.266;14.192;2023-01-28T19:46:40;19.30;;;9.90;;
75456;SDS011;64036;48.266;14.192;2023-01-28T19:49:11;22.50;;;10.60;;
75456;SDS011;64036;48.266;14.192;2023-01-28T19:51:38;22.90;;;9.40;;
75456;SDS011;64036;48.266;14.192;2023-01-28T19:54:04;20.20;;;10.50;;
75456;SDS011;64036;48.266;14.192;2023-01-28T19:56:30;19.90;;;10.10;;
75456;SDS011;64036;48.266;14.192;2023-01-28T19:59:00;20.90;;;10.90;;
75456;SDS011;64036;48.266;14.192;2023-01-28T20:01:26;19.10;;;9.50;;
75456;SDS011;64036;48.266;14.192;2023-01-28T20:03:55;21.60;;;10.20;;
75456;SDS011;64036;48.266;14.192;2023-01-28T20:06:26;20.20;;;11.20;;
75456;SDS011;64036;48.266;14.192;2023-01-28T20:09:04;16.80;;;8.80;;
75456;SDS011;64036;48.266;14.192;2023-01-28T20:11:35;18.00;;;9.00;;
75456;SDS011;64036;48.266;14.192;2023-01-28T20:14:01;19.00;;;10.10;;
75456;SDS011;64036;48.266;14.192;2023-01-28T20:16:32;19.80;;;9.40;;
75456;SDS011;64036;48.266;14.192;2023-01-28T20:19:04;16.40;;;9.40;;
75456;SDS011;64036;48.266;14.192;2023-01-28T20:21:32;18.10;;;9.30;;
75456;SDS011;64036;48.266;14.192;2023-01-28T20:24:03;17.10;;;8.80;;
75456;SDS011;64036;48.266;14.192;2023-01-28T20:26:35;18.90;;;10.10;;
75456;SDS011;64036;48.266;14.192;2023-01-28T20:29:07;16.40;;;7.60;;
75456;SDS011;64036;48.266;14.192;2023-01-28T20:31:38;15.00;;;7.70;;
75456;SDS011;64036;48.266;14.192;2023-01-28T20:34:11;15.20;;;8.00;;
75456;SDS011;64036;48.266;14.192;2023-01-28T20:36:42;14.50;;;7.40;;
75456;SDS011;64036;48.266;14.192;2023-01-28T20:39:08;15.00;;;6.70;;
75456;SDS011;64036;48.266;14.192;2023-01-28T20:41:34;13.80;;;6.70;;
75456;SDS011;64036;48.266;14.192;2023-01-28T20:43:59;11.90;;;6.30;;
75456;SDS011;64036;48.266;14.192;2023-01-28T20:46:37;15.00;;;6.80;;
75456;SDS011;64036;48.266;14.192;2023-01-28T20:49:04;14.50;;;7.10;;
75456;SDS011;64036;48.266;14.192;2023-01-28T20:51:33;12.60;;;6.00;;
75456;SDS011;64036;48.266;14.192;2023-01-28T20:54:00;11.40;;;6.40;;
75456;SDS011;64036;48.266;14.192;2023-01-28T20:56:37;9.80;;;5.40;;
75456;SDS011;64036;48.266;14.192;2023-01-28T20:59:04;11.80;;;6.20;;
75456;SDS011;64036;48.266;14.192;2023-01-28T21:01:34;14.40;;;7.80;;
75456;SDS011;64036;48.266;14.192;2023-01-28T21:04:12;16.00;;;7.80;;
75456;SDS011;64036;48.266;14.192;2023-01-28T21:06:39;14.90;;;8.30;;
75456;SDS011;64036;48.266;14.192;2023-01-28T21:09:05;13.80;;;7.30;;
75456;SDS011;64036;48.266;14.192;2023-01-28T21:11:31;12.40;;;6.70;;
75456;SDS011;64036;48.266;14.192;2023-01-28T21:13:57;11.70;;;5.90;;
75456;SDS011;64036;48.266;14.192;2023-01-28T21:16:23;14.90;;;6.80;;
75456;SDS011;64036;48.266;14.192;2023-01-28T21:18:50;11.90;;;5.70;;
75456;SDS011;64036;48.266;14.192;2023-01-28T21:21:27;16.90;;;8.10;;
75456;SDS011;64036;48.266;14.192;2023-01-28T21:23:58;13.90;;;6.90;;
75456;SDS011;64036;48.266;14.192;2023-01-28T21:26:32;14.20;;;7.60;;
75456;SDS011;64036;48.266;14.192;2023-01-28T21:28:59;15.50;;;7.90;;
75456;SDS011;64036;48.266;14.192;2023-01-28T21:31:28;13.80;;;7.80;;
75456;SDS011;64036;48.266;14.192;2023-01-28T21:33:57;17.90;;;8.40;;
75456;SDS011;64036;48.266;14.192;2023-01-28T21:38:56;13.10;;;5.70;;
75456;SDS011;64036;48.266;14.192;2023-01-28T21:43:53;12.70;;;6.40;;
75456;SDS011;64036;48.266;14.192;2023-01-28T21:46:25;12.10;;;6.00;;
75456;SDS011;64036;48.266;14.192;2023-01-28T21:48:56;15.20;;;7.20;;
75456;SDS011;64036;48.266;14.192;2023-01-28T21:51:27;16.00;;;8.10;;
75456;SDS011;64036;48.266;14.192;2023-01-28T21:54:02;14.20;;;6.80;;
75456;SDS011;64036;48.266;14.192;2023-01-28T21:56:33;10.70;;;5.70;;
75456;SDS011;64036;48.266;14.192;2023-01-28T21:58:58;12.40;;;6.40;;
75456;SDS011;64036;48.266;14.192;2023-01-28T22:01:46;14.80;;;7.20;;
75456;SDS011;64036;48.266;14.192;2023-01-28T22:04:15;15.90;;;7.60;;
75456;SDS011;64036;48.266;14.192;2023-01-28T22:06:41;14.20;;;8.00;;
75456;SDS011;64036;48.266;14.192;2023-01-28T22:09:14;15.60;;;7.90;;
75456;SDS011;64036;48.266;14.192;2023-01-28T22:11:41;13.30;;;7.20;;
75456;SDS011;64036;48.266;14.192;2023-01-28T22:14:08;15.10;;;7.00;;
75456;SDS011;64036;48.266;14.192;2023-01-28T22:16:35;13.10;;;7.10;;
75456;SDS011;64036;48.266;14.192;2023-01-28T22:19:06;13.20;;;7.20;;
75456;SDS011;64036;48.266;14.192;2023-01-28T22:25:00;13.30;;;7.00;;
75456;SDS011;64036;48.266;14.192;2023-01-28T22:28:12;12.70;;;6.80;;
75456;SDS011;64036;48.266;14.192;2023-01-28T22:33:44;12.70;;;6.10;;
75456;SDS011;64036;48.266;14.192;2023-01-28T22:36:21;12.90;;;6.60;;
75456;SDS011;64036;48.266;14.192;2023-01-28T22:38:50;12.20;;;6.40;;
75456;SDS011;64036;48.266;14.192;2023-01-28T22:41:43;14.00;;;6.90;;
75456;SDS011;64036;48.266;14.192;2023-01-28T22:44:09;15.20;;;7.10;;
75456;SDS011;64036;48.266;14.192;2023-01-28T22:46:38;14.00;;;7.20;;